Time,TemperatureF,DewpointF,PressureIn,WindDirection,WindDirectionDegrees,WindSpeedMPH,WindSpeedGustMPH,Humidity,HourlyPrecipIn,Conditions,Clouds,dailyrainin,SoftwareType,DateUTC
2013-03-25 00:02:00,50.4,3.0,25.57,North,1,0.0,0.0,14,0.00,,---,0.00,VWS V14.01,2013-03-25 07:02:00,
2013-03-25 00:07:00,50.2,2.8,25.57,North,1,0.0,0.0,14,0.00,,---,0.00,VWS V14.01,2013-03-25 07:07:00,
2013-03-25 00:12:00,49.8,2.5,25.57,North,1,0.0,0.0,14,0.00,,---,0.00,VWS V14.01,2013-03-25 07:12:00,
2013-03-25 00:17:00,50.2,2.8,25.57,North,1,0.0,0.0,14,0.00,,---,0.00,VWS V14.01,2013-03-25 07:17:00,
2013-03-25 00:22:00,49.8,2.5,25.57,North,1,0.0,0.0,14,0.00,,---,0.00,VWS V14.01,2013-03-25 07:22:00,
2013-03-25 00:27:00,49.6,2.4,25.57,North,1,0.0,0.0,14,0.00,,---,0.00,VWS V14.01,2013-03-25 07:27:00,
2013-03-25 00:32:00,49.5,2.3,25.57,North,1,0.0,0.0,14,0.00,,---,0.00,VWS V14.01,2013-03-25 07:32:00,
2013-03-25 00:37:00,49.5,2.3,25.57,North,0,0.0,0.0,14,0.00,,---,0.00,VWS V14.01,2013-03-25 07:37:00,
2013-03-25 00:42:00,50.5,3.1,25.57,NE,45,0.0,0.0,14,0.00,,---,0.00,VWS V14.01,2013-03-25 07:42:00,
2013-03-25 00:47:00,49.5,2.3,25.57,SE,128,3.1,3.6,14,0.00,,---,0.00,VWS V14.01,2013-03-25 07:47:00,
2013-03-25 00:52:00,47.7,0.8,25.57,SE,128,0.0,0.0,14,0.00,,---,0.00,VWS V14.01,2013-03-25 07:52:00,
2013-03-25 00:57:00,47.3,0.5,25.57,SE,128,0.0,0.0,14,0.00,,---,0.00,VWS V14.01,2013-03-25 07:57:00,
2013-03-25 01:02:00,47.3,0.5,25.57,SE,128,0.0,0.0,14,0.00,,---,0.00,VWS V14.01,2013-03-25 08:02:00,
2013-03-25 01:07:00,46.9,0.2,25.57,SE,128,0.0,0.0,14,0.00,,---,0.00,VWS V14.01,2013-03-25 08:07:00,
2013-03-25 01:12:00,46.4,-0.2,25.57,SE,128,0.0,0.0,14,0.00,,---,0.00,VWS V14.01,2013-03-25 08:12:00,
2013-03-25 01:18:00,46.0,1.0,25.57,SE,128,0.0,0.0,15,0.00,,---,0.00,VWS V14.01,2013-03-25 08:18:00,
2013-03-25 01:23:00,46.4,-0.2,25.57,SE,128,0.0,0.0,14,0.00,,---,0.00,VWS V14.01,2013-03-25 08:23:00,
2013-03-25 01:28:00,46.6,-0.1,25.57,SE,128,0.0,0.0,14,0.00,,---,0.00,VWS V14.01,2013-03-25 08:28:00,
2013-03-25 01:33:00,46.6,-0.1,25.57,SE,128,0.0,0.0,14,0.00,,---,0.00,VWS V14.01,2013-03-25 08:33:00,
2013-03-25 01:38:00,44.2,-0.5,25.57,ENE,68,0.0,3.6,15,0.00,,---,0.00,VWS V14.01,2013-03-25 08:38:00,
2013-03-25 01:43:00,43.3,-1.2,25.57,ENE,74,0.0,0.0,15,0.00,,---,0.00,VWS V14.01,2013-03-25 08:43:00,
2013-03-25 01:48:00,42.8,-1.6,25.57,WNW,301,0.0,0.0,15,0.00,,---,0.00,VWS V14.01,2013-03-25 08:48:00,
2013-03-25 01:53:00,43.2,-1.4,25.57,WNW,302,0.0,0.0,15,0.00,,---,0.00,VWS V14.01,2013-03-25 08:53:00,
2013-03-25 01:58:00,44.1,-0.6,25.57,WNW,302,0.0,0.0,15,0.00,,---,0.00,VWS V14.01,2013-03-25 08:58:00,
2013-03-25 02:03:00,44.2,-0.5,25.57,WNW,301,0.0,0.0,15,0.00,,---,0.00,VWS V14.01,2013-03-25 09:03:00,
2013-03-25 02:08:00,44.8,0.0,25.57,WNW,301,0.0,0.0,15,0.00,,---,0.00,VWS V14.01,2013-03-25 09:08:00,
2013-03-25 02:13:00,45.0,0.1,25.57,WNW,301,0.0,0.0,15,0.00,,---,0.00,VWS V14.01,2013-03-25 09:13:00,
2013-03-25 02:18:00,46.0,1.0,25.57,West,259,3.6,4.0,15,0.00,,---,0.00,VWS V14.01,2013-03-25 09:18:00,
2013-03-25 02:23:00,46.8,0.1,25.57,WSW,258,3.1,3.6,14,0.00,,---,0.00,VWS V14.01,2013-03-25 09:23:00,
2013-03-25 02:28:00,46.9,0.2,25.57,WSW,258,0.0,0.0,14,0.00,,---,0.00,VWS V14.01,2013-03-25 09:28:00,
2013-03-25 02:33:00,47.5,0.7,25.57,WSW,258,0.0,0.0,14,0.00,,---,0.00,VWS V14.01,2013-03-25 09:33:00,
2013-03-25 02:38:00,47.5,0.7,25.57,West,262,0.0,0.0,14,0.00,,---,0.00,VWS V14.01,2013-03-25 09:38:00,
2013-03-25 02:43:00,47.3,0.5,25.57,West,263,0.0,0.0,14,0.00,,---,0.00,VWS V14.01,2013-03-25 09:43:00,
2013-03-25 02:48:00,47.1,0.4,25.57,West,263,0.0,0.0,14,0.00,,---,0.00,VWS V14.01,2013-03-25 09:48:00,
2013-03-25 02:53:00,47.1,0.4,25.57,West,263,0.0,0.0,14,0.00,,---,0.00,VWS V14.01,2013-03-25 09:53:00,
2013-03-25 02:58:00,46.6,-0.1,25.57,West,263,0.0,0.0,14,0.00,,---,0.00,VWS V14.01,2013-03-25 09:58:00,
2013-03-25 03:03:00,45.7,0.7,25.57,West,263,2.7,4.0,15,0.00,,---,0.00,VWS V14.01,2013-03-25 10:03:00,
2013-03-25 03:08:00,44.8,0.0,25.57,West,262,0.0,0.0,15,0.00,,---,0.00,VWS V14.01,2013-03-25 10:08:00,
2013-03-25 03:13:00,43.3,-1.2,25.57,South,182,4.5,4.9,15,0.00,,---,0.00,VWS V14.01,2013-03-25 10:13:00,
2013-03-25 03:18:00,43.2,-1.4,25.57,SSE,155,3.1,3.6,15,0.00,,---,0.00,VWS V14.01,2013-03-25 10:18:00,
2013-03-25 03:23:00,42.3,-0.7,25.57,SSE,155,0.0,0.0,16,0.00,,---,0.00,VWS V14.01,2013-03-25 10:23:00,
2013-03-25 03:28:00,41.2,-1.6,25.57,SSE,155,0.0,0.0,16,0.00,,---,0.00,VWS V14.01,2013-03-25 10:28:00,
2013-03-25 03:33:00,40.8,-1.9,25.57,SSE,155,0.0,0.0,16,0.00,,---,0.00,VWS V14.01,2013-03-25 10:33:00,
2013-03-25 03:38:00,41.0,-1.7,25.57,SSE,155,0.0,0.0,16,0.00,,---,0.00,VWS V14.01,2013-03-25 10:38:00,
2013-03-25 03:43:00,40.8,-1.9,25.57,SSE,155,3.6,3.6,16,0.00,,---,0.00,VWS V14.01,2013-03-25 10:43:00,
2013-03-25 03:48:00,41.0,-1.7,25.57,South,174,4.9,4.9,16,0.00,,---,0.00,VWS V14.01,2013-03-25 10:48:00,
2013-03-25 03:53:00,41.4,-1.5,25.57,South,182,4.0,4.0,16,0.00,,---,0.00,VWS V14.01,2013-03-25 10:53:00,
2013-03-25 03:58:00,41.5,-1.3,25.57,South,182,4.0,4.0,16,0.00,,---,0.00,VWS V14.01,2013-03-25 10:58:00,
2013-03-25 04:03:00,41.0,-1.7,25.57,South,182,0.0,0.0,16,0.00,,---,0.00,VWS V14.01,2013-03-25 11:03:00,
2013-03-25 04:08:00,40.1,-2.5,25.57,South,182,0.0,0.0,16,0.00,,---,0.00,VWS V14.01,2013-03-25 11:08:00,
2013-03-25 04:14:00,40.1,-2.5,25.57,South,182,0.0,0.0,16,0.00,,---,0.00,VWS V14.01,2013-03-25 11:14:00,
2013-03-25 04:19:00,39.7,-2.8,25.57,South,182,0.0,0.0,16,0.00,,---,0.00,VWS V14.01,2013-03-25 11:19:00,
2013-03-25 04:24:00,40.5,-2.2,25.57,South,182,0.0,0.0,16,0.00,,---,0.00,VWS V14.01,2013-03-25 11:24:00,
2013-03-25 04:29:00,40.3,-2.3,25.57,South,182,0.0,0.0,16,0.00,,---,0.00,VWS V14.01,2013-03-25 11:29:00,
2013-03-25 04:34:00,40.8,-1.9,25.57,South,182,0.0,0.0,16,0.00,,---,0.00,VWS V14.01,2013-03-25 11:34:00,
2013-03-25 04:39:00,39.9,-2.6,25.57,South,182,0.0,0.0,16,0.00,,---,0.00,VWS V14.01,2013-03-25 11:39:00,
2013-03-25 04:44:00,38.8,-3.5,25.57,ESE,102,0.0,0.0,16,0.00,,---,0.00,VWS V14.01,2013-03-25 11:44:00,
2013-03-25 04:49:00,37.0,-3.7,25.57,ESE,102,0.0,0.0,17,0.00,,---,0.00,VWS V14.01,2013-03-25 11:49:00,
2013-03-25 04:54:00,36.3,-4.3,25.57,SE,144,3.6,3.6,17,0.00,,---,0.00,VWS V14.01,2013-03-25 11:54:00,
2013-03-25 04:59:00,36.7,-4.0,25.57,South,177,4.5,4.9,17,0.00,,---,0.00,VWS V14.01,2013-03-25 11:59:00,
2013-03-25 05:04:00,37.6,-4.5,25.57,South,187,3.1,4.0,16,0.00,,---,0.00,VWS V14.01,2013-03-25 12:04:00,
2013-03-25 05:09:00,36.9,-3.9,25.57,South,187,0.0,0.0,17,0.00,,---,0.00,VWS V14.01,2013-03-25 12:09:00,
2013-03-25 05:14:00,36.3,-4.3,25.57,South,187,0.0,0.0,17,0.00,,---,0.00,VWS V14.01,2013-03-25 12:14:00,
2013-03-25 05:19:00,36.1,-4.5,25.57,South,187,0.0,0.0,17,0.00,,---,0.00,VWS V14.01,2013-03-25 12:19:00,
2013-03-25 05:24:00,38.8,-3.5,25.57,WSW,243,4.0,4.5,16,0.00,,---,0.00,VWS V14.01,2013-03-25 12:24:00,
2013-03-25 05:29:00,39.2,-3.2,25.57,WSW,243,0.0,0.0,16,0.00,,---,0.00,VWS V14.01,2013-03-25 12:29:00,
2013-03-25 05:34:00,39.2,-3.2,25.57,WSW,243,0.0,0.0,16,0.00,,---,0.00,VWS V14.01,2013-03-25 12:34:00,
2013-03-25 05:39:00,39.7,-2.8,25.57,WSW,243,0.0,0.0,16,0.00,,---,0.00,VWS V14.01,2013-03-25 12:39:00,
2013-03-25 05:45:00,39.4,-3.1,25.57,WSW,243,0.0,0.0,16,0.00,,---,0.00,VWS V14.01,2013-03-25 12:45:00,
2013-03-25 05:50:00,39.0,-3.4,25.57,WSW,243,0.0,0.0,16,0.00,,---,0.00,VWS V14.01,2013-03-25 12:50:00,
2013-03-25 05:55:00,38.5,-3.8,25.57,WSW,243,0.0,0.0,16,0.00,,---,0.00,VWS V14.01,2013-03-25 12:55:00,
2013-03-25 06:00:00,38.8,-3.5,25.57,WSW,243,0.0,0.0,16,0.00,,---,0.00,VWS V14.01,2013-03-25 13:00:00,
2013-03-25 06:05:00,35.6,-4.9,25.57,SE,130,5.4,5.4,17,0.00,,---,0.00,VWS V14.01,2013-03-25 13:05:00,
2013-03-25 06:10:00,34.7,-5.6,25.60,SE,145,6.3,6.3,17,0.00,,---,0.00,VWS V14.01,2013-03-25 13:10:00,
2013-03-25 06:15:00,34.7,-5.6,25.60,South,169,5.8,5.8,17,0.00,,---,0.00,VWS V14.01,2013-03-25 13:15:00,
2013-03-25 06:20:00,34.7,-5.6,25.60,South,185,5.4,6.3,17,0.00,,---,0.00,VWS V14.01,2013-03-25 13:20:00,
2013-03-25 06:25:00,34.9,-5.5,25.60,South,183,5.8,5.8,17,0.00,,---,0.00,VWS V14.01,2013-03-25 13:25:00,
2013-03-25 06:30:00,35.2,-5.2,25.60,South,188,0.0,2.7,17,0.00,,---,0.00,VWS V14.01,2013-03-25 13:30:00,
2013-03-25 06:35:00,35.8,-4.8,25.60,South,187,2.2,2.2,17,0.00,,---,0.00,VWS V14.01,2013-03-25 13:35:00,
2013-03-25 06:40:00,36.7,-4.0,25.60,South,187,0.0,0.0,17,0.00,,---,0.00,VWS V14.01,2013-03-25 13:40:00,
2013-03-25 06:45:00,37.4,-4.7,25.60,South,187,0.0,0.0,16,0.00,,---,0.00,VWS V14.01,2013-03-25 13:45:00,
2013-03-25 06:50:00,38.3,-4.0,25.60,South,187,0.0,0.0,16,0.00,,---,0.00,VWS V14.01,2013-03-25 13:50:00,
2013-03-25 06:55:00,39.2,-3.2,25.60,South,187,0.0,0.0,16,0.00,,---,0.00,VWS V14.01,2013-03-25 13:55:00,
2013-03-25 07:00:00,40.3,-2.3,25.60,South,187,0.0,0.0,16,0.00,,---,0.00,VWS V14.01,2013-03-25 14:00:00,